Paragon, Indiana
Current Conditions -  °F | °C
As of 1:55 PM on Monday 20 Oct 2014 (Local Time) from K1II Reporting Station
Overcast Overcast  
Wind Chill: 61°   Ceiling: 6000
Heat Index: 61°   Visibility: 10mi
Dew Point: 50°   Wind: 10mph
Humidity: 68%   Direction: 270°W
Pressure: 29.88"   Gusts: 22mph
Location:  39.4°N, 86.56°W
Report Text: K1II 201755Z AUTO 27009G19KT 10SM SCT033 SCT041 OVC060 16/10 A2988 RMK AO2 LTG DSNT NE
Loading
Personal Weather Stations






























Interactive Weather Map
Tropical Storm Tracking
New forecast layout! Learn more

10-Day Weather Forecast

Advertisements
Track Severe Weather on mobile